sensor_id;sensor_type;location;lat;lon;timestamp;P1;durP1;ratioP1;P2;durP2;ratioP2
59145;SDS011;44928;53.074;6.646;2023-06-14T00:01:32;6.13;;;1.85;;
59145;SDS011;44928;53.074;6.646;2023-06-14T00:03:59;7.40;;;1.73;;
59145;SDS011;44928;53.074;6.646;2023-06-14T00:06:26;6.32;;;1.52;;
59145;SDS011;44928;53.074;6.646;2023-06-14T00:08:53;8.43;;;1.65;;
59145;SDS011;44928;53.074;6.646;2023-06-14T00:11:19;7.18;;;1.90;;
59145;SDS011;44928;53.074;6.646;2023-06-14T00:13:45;7.10;;;2.00;;
59145;SDS011;44928;53.074;6.646;2023-06-14T00:16:11;5.63;;;1.65;;
59145;SDS011;44928;53.074;6.646;2023-06-14T00:18:37;6.43;;;1.80;;
59145;SDS011;44928;53.074;6.646;2023-06-14T00:21:04;6.05;;;1.98;;
59145;SDS011;44928;53.074;6.646;2023-06-14T00:23:30;7.07;;;1.83;;
59145;SDS011;44928;53.074;6.646;2023-06-14T00:25:56;7.85;;;1.98;;
59145;SDS011;44928;53.074;6.646;2023-06-14T00:28:22;6.22;;;1.80;;
59145;SDS011;44928;53.074;6.646;2023-06-14T00:30:47;7.25;;;1.70;;
59145;SDS011;44928;53.074;6.646;2023-06-14T00:33:13;6.05;;;1.70;;
59145;SDS011;44928;53.074;6.646;2023-06-14T00:35:39;5.70;;;1.60;;
59145;SDS011;44928;53.074;6.646;2023-06-14T00:38:05;6.10;;;1.65;;
59145;SDS011;44928;53.074;6.646;2023-06-14T00:40:31;8.35;;;1.90;;
59145;SDS011;44928;53.074;6.646;2023-06-14T00:42:56;4.82;;;1.80;;
59145;SDS011;44928;53.074;6.646;2023-06-14T00:45:22;6.28;;;1.90;;
59145;SDS011;44928;53.074;6.646;2023-06-14T00:47:48;8.60;;;2.17;;
59145;SDS011;44928;53.074;6.646;2023-06-14T00:50:17;6.50;;;2.13;;
59145;SDS011;44928;53.074;6.646;2023-06-14T00:52:45;10.95;;;2.17;;
59145;SDS011;44928;53.074;6.646;2023-06-14T00:55:11;6.50;;;2.30;;
59145;SDS011;44928;53.074;6.646;2023-06-14T00:57:36;6.55;;;1.92;;
59145;SDS011;44928;53.074;6.646;2023-06-14T01:00:02;10.10;;;2.35;;
59145;SDS011;44928;53.074;6.646;2023-06-14T01:02:33;8.07;;;2.67;;
59145;SDS011;44928;53.074;6.646;2023-06-14T01:05:01;6.75;;;2.20;;
59145;SDS011;44928;53.074;6.646;2023-06-14T01:07:38;6.90;;;2.40;;
59145;SDS011;44928;53.074;6.646;2023-06-14T01:15:25;7.07;;;2.67;;
59145;SDS011;44928;53.074;6.646;2023-06-14T01:17:52;8.32;;;2.55;;
59145;SDS011;44928;53.074;6.646;2023-06-14T01:20:19;8.73;;;3.00;;
59145;SDS011;44928;53.074;6.646;2023-06-14T01:22:53;7.75;;;2.97;;
59145;SDS011;44928;53.074;6.646;2023-06-14T01:25:22;7.25;;;2.65;;
59145;SDS011;44928;53.074;6.646;2023-06-14T01:27:49;8.25;;;2.70;;
59145;SDS011;44928;53.074;6.646;2023-06-14T01:30:23;8.45;;;2.85;;
59145;SDS011;44928;53.074;6.646;2023-06-14T01:32:53;9.23;;;3.00;;
59145;SDS011;44928;53.074;6.646;2023-06-14T01:35:21;9.07;;;2.78;;
59145;SDS011;44928;53.074;6.646;2023-06-14T01:37:48;7.20;;;2.63;;
59145;SDS011;44928;53.074;6.646;2023-06-14T01:40:14;8.18;;;2.95;;
59145;SDS011;44928;53.074;6.646;2023-06-14T01:42:41;9.55;;;3.03;;
59145;SDS011;44928;53.074;6.646;2023-06-14T01:45:08;7.32;;;2.60;;
59145;SDS011;44928;53.074;6.646;2023-06-14T01:47:35;8.73;;;2.90;;
59145;SDS011;44928;53.074;6.646;2023-06-14T01:50:02;9.45;;;2.80;;
59145;SDS011;44928;53.074;6.646;2023-06-14T01:52:29;9.43;;;3.08;;
59145;SDS011;44928;53.074;6.646;2023-06-14T01:54:55;8.52;;;2.80;;
59145;SDS011;44928;53.074;6.646;2023-06-14T01:57:21;6.18;;;2.50;;
59145;SDS011;44928;53.074;6.646;2023-06-14T01:59:47;9.45;;;2.80;;
59145;SDS011;44928;53.074;6.646;2023-06-14T02:02:14;8.43;;;2.60;;
59145;SDS011;44928;53.074;6.646;2023-06-14T02:04:41;7.10;;;2.70;;
59145;SDS011;44928;53.074;6.646;2023-06-14T02:07:07;6.30;;;2.40;;
59145;SDS011;44928;53.074;6.646;2023-06-14T02:09:33;5.97;;;2.53;;
59145;SDS011;44928;53.074;6.646;2023-06-14T02:12:00;7.00;;;2.30;;
59145;SDS011;44928;53.074;6.646;2023-06-14T02:14:26;6.80;;;2.28;;
59145;SDS011;44928;53.074;6.646;2023-06-14T02:16:52;8.57;;;2.47;;
59145;SDS011;44928;53.074;6.646;2023-06-14T02:19:19;5.82;;;2.00;;
59145;SDS011;44928;53.074;6.646;2023-06-14T02:21:45;6.78;;;2.30;;
59145;SDS011;44928;53.074;6.646;2023-06-14T02:24:12;8.05;;;2.30;;
59145;SDS011;44928;53.074;6.646;2023-06-14T02:26:38;5.32;;;1.95;;
59145;SDS011;44928;53.074;6.646;2023-06-14T02:29:06;4.43;;;1.80;;
59145;SDS011;44928;53.074;6.646;2023-06-14T02:31:35;7.53;;;2.20;;
59145;SDS011;44928;53.074;6.646;2023-06-14T02:34:01;7.05;;;2.00;;
59145;SDS011;44928;53.074;6.646;2023-06-14T02:36:27;7.97;;;1.73;;
59145;SDS011;44928;53.074;6.646;2023-06-14T02:38:55;6.35;;;1.75;;
59145;SDS011;44928;53.074;6.646;2023-06-14T02:41:25;7.38;;;2.20;;
59145;SDS011;44928;53.074;6.646;2023-06-14T02:43:52;8.43;;;1.75;;
59145;SDS011;44928;53.074;6.646;2023-06-14T02:46:18;7.40;;;2.20;;
59145;SDS011;44928;53.074;6.646;2023-06-14T02:48:44;5.70;;;1.90;;
59145;SDS011;44928;53.074;6.646;2023-06-14T02:51:10;8.63;;;2.30;;
59145;SDS011;44928;53.074;6.646;2023-06-14T02:53:36;5.78;;;1.92;;
59145;SDS011;44928;53.074;6.646;2023-06-14T02:56:02;6.40;;;1.83;;
59145;SDS011;44928;53.074;6.646;2023-06-14T02:58:29;8.10;;;1.88;;
59145;SDS011;44928;53.074;6.646;2023-06-14T03:00:55;6.80;;;1.88;;
59145;SDS011;44928;53.074;6.646;2023-06-14T03:03:21;8.13;;;1.92;;
59145;SDS011;44928;53.074;6.646;2023-06-14T03:05:49;5.45;;;1.92;;
59145;SDS011;44928;53.074;6.646;2023-06-14T03:08:16;6.68;;;1.90;;
59145;SDS011;44928;53.074;6.646;2023-06-14T03:10:44;8.40;;;2.30;;
59145;SDS011;44928;53.074;6.646;2023-06-14T03:13:13;24.33;;;3.67;;
59145;SDS011;44928;53.074;6.646;2023-06-14T03:15:46;8.85;;;2.50;;
59145;SDS011;44928;53.074;6.646;2023-06-14T03:18:15;8.15;;;2.20;;
59145;SDS011;44928;53.074;6.646;2023-06-14T03:20:41;6.38;;;2.10;;
59145;SDS011;44928;53.074;6.646;2023-06-14T03:23:10;6.78;;;2.45;;
59145;SDS011;44928;53.074;6.646;2023-06-14T03:25:36;7.78;;;2.30;;
59145;SDS011;44928;53.074;6.646;2023-06-14T03:28:03;6.18;;;2.25;;
59145;SDS011;44928;53.074;6.646;2023-06-14T03:30:30;8.00;;;2.63;;
59145;SDS011;44928;53.074;6.646;2023-06-14T03:32:56;8.13;;;2.60;;
59145;SDS011;44928;53.074;6.646;2023-06-14T03:35:22;8.35;;;2.30;;
59145;SDS011;44928;53.074;6.646;2023-06-14T03:37:48;8.05;;;2.63;;
59145;SDS011;44928;53.074;6.646;2023-06-14T03:40:15;8.30;;;2.35;;
59145;SDS011;44928;53.074;6.646;2023-06-14T03:42:43;7.13;;;2.15;;
59145;SDS011;44928;53.074;6.646;2023-06-14T03:45:09;7.45;;;2.30;;
59145;SDS011;44928;53.074;6.646;2023-06-14T03:47:35;6.82;;;2.50;;
59145;SDS011;44928;53.074;6.646;2023-06-14T03:50:01;8.00;;;2.38;;
59145;SDS011;44928;53.074;6.646;2023-06-14T03:52:27;6.80;;;2.53;;
59145;SDS011;44928;53.074;6.646;2023-06-14T03:54:53;9.05;;;2.78;;
59145;SDS011;44928;53.074;6.646;2023-06-14T03:57:19;6.60;;;2.50;;
59145;SDS011;44928;53.074;6.646;2023-06-14T03:59:45;8.57;;;2.70;;
59145;SDS011;44928;53.074;6.646;2023-06-14T04:02:12;6.75;;;2.58;;
59145;SDS011;44928;53.074;6.646;2023-06-14T04:04:41;6.25;;;2.33;;
59145;SDS011;44928;53.074;6.646;2023-06-14T04:07:12;7.25;;;2.22;;
59145;SDS011;44928;53.074;6.646;2023-06-14T04:09:38;6.88;;;2.30;;
59145;SDS011;44928;53.074;6.646;2023-06-14T04:12:05;7.18;;;2.25;;
59145;SDS011;44928;53.074;6.646;2023-06-14T04:14:31;8.00;;;2.90;;
59145;SDS011;44928;53.074;6.646;2023-06-14T04:16:58;8.65;;;2.65;;
59145;SDS011;44928;53.074;6.646;2023-06-14T04:19:24;8.05;;;2.60;;
59145;SDS011;44928;53.074;6.646;2023-06-14T04:21:49;6.88;;;2.20;;
59145;SDS011;44928;53.074;6.646;2023-06-14T04:24:15;7.15;;;2.70;;
59145;SDS011;44928;53.074;6.646;2023-06-14T04:26:42;8.45;;;2.92;;
59145;SDS011;44928;53.074;6.646;2023-06-14T04:29:13;6.43;;;2.45;;
59145;SDS011;44928;53.074;6.646;2023-06-14T04:31:41;10.45;;;2.60;;
59145;SDS011;44928;53.074;6.646;2023-06-14T04:34:08;8.43;;;2.22;;
59145;SDS011;44928;53.074;6.646;2023-06-14T04:36:34;10.48;;;2.65;;
59145;SDS011;44928;53.074;6.646;2023-06-14T04:39:02;8.95;;;2.50;;
59145;SDS011;44928;53.074;6.646;2023-06-14T04:41:29;7.28;;;2.60;;
59145;SDS011;44928;53.074;6.646;2023-06-14T04:43:57;8.15;;;2.90;;
59145;SDS011;44928;53.074;6.646;2023-06-14T04:46:26;7.72;;;2.80;;
59145;SDS011;44928;53.074;6.646;2023-06-14T04:48:57;7.68;;;2.53;;
59145;SDS011;44928;53.074;6.646;2023-06-14T04:51:23;9.05;;;2.83;;
59145;SDS011;44928;53.074;6.646;2023-06-14T04:53:55;8.30;;;2.80;;
59145;SDS011;44928;53.074;6.646;2023-06-14T04:56:24;7.25;;;2.67;;
59145;SDS011;44928;53.074;6.646;2023-06-14T04:58:51;7.05;;;2.60;;
59145;SDS011;44928;53.074;6.646;2023-06-14T05:01:18;9.23;;;2.70;;
59145;SDS011;44928;53.074;6.646;2023-06-14T05:03:44;8.88;;;2.90;;
59145;SDS011;44928;53.074;6.646;2023-06-14T05:06:10;8.32;;;2.58;;
59145;SDS011;44928;53.074;6.646;2023-06-14T05:08:37;7.38;;;2.67;;
59145;SDS011;44928;53.074;6.646;2023-06-14T05:11:02;8.75;;;2.72;;
59145;SDS011;44928;53.074;6.646;2023-06-14T05:13:28;7.13;;;2.50;;
59145;SDS011;44928;53.074;6.646;2023-06-14T05:15:54;7.70;;;2.72;;
59145;SDS011;44928;53.074;6.646;2023-06-14T05:18:19;7.47;;;2.70;;
59145;SDS011;44928;53.074;6.646;2023-06-14T05:20:45;8.73;;;2.90;;
59145;SDS011;44928;53.074;6.646;2023-06-14T05:23:11;7.97;;;3.00;;
59145;SDS011;44928;53.074;6.646;2023-06-14T05:25:40;8.85;;;3.58;;
59145;SDS011;44928;53.074;6.646;2023-06-14T05:28:08;10.68;;;3.00;;
59145;SDS011;44928;53.074;6.646;2023-06-14T05:30:33;8.73;;;2.97;;
59145;SDS011;44928;53.074;6.646;2023-06-14T05:32:59;7.40;;;2.53;;
59145;SDS011;44928;53.074;6.646;2023-06-14T05:35:25;8.50;;;2.90;;
59145;SDS011;44928;53.074;6.646;2023-06-14T05:37:52;9.20;;;2.95;;
59145;SDS011;44928;53.074;6.646;2023-06-14T05:40:19;9.90;;;3.08;;
59145;SDS011;44928;53.074;6.646;2023-06-14T05:42:45;6.88;;;2.90;;
59145;SDS011;44928;53.074;6.646;2023-06-14T05:45:11;7.88;;;2.63;;
59145;SDS011;44928;53.074;6.646;2023-06-14T05:47:36;8.02;;;2.70;;
59145;SDS011;44928;53.074;6.646;2023-06-14T05:50:02;9.63;;;2.47;;
59145;SDS011;44928;53.074;6.646;2023-06-14T05:52:28;7.30;;;3.05;;
59145;SDS011;44928;53.074;6.646;2023-06-14T05:54:54;7.22;;;2.58;;
59145;SDS011;44928;53.074;6.646;2023-06-14T05:57:20;9.73;;;2.70;;
59145;SDS011;44928;53.074;6.646;2023-06-14T05:59:46;8.85;;;3.08;;
59145;SDS011;44928;53.074;6.646;2023-06-14T06:02:12;10.48;;;2.70;;
59145;SDS011;44928;53.074;6.646;2023-06-14T06:04:38;8.35;;;2.92;;
59145;SDS011;44928;53.074;6.646;2023-06-14T06:07:03;8.57;;;2.45;;
59145;SDS011;44928;53.074;6.646;2023-06-14T06:09:30;11.52;;;2.50;;
59145;SDS011;44928;53.074;6.646;2023-06-14T06:11:56;7.55;;;2.30;;
59145;SDS011;44928;53.074;6.646;2023-06-14T06:14:22;10.82;;;3.15;;
59145;SDS011;44928;53.074;6.646;2023-06-14T06:16:47;13.23;;;2.78;;
59145;SDS011;44928;53.074;6.646;2023-06-14T06:19:13;8.18;;;2.50;;
59145;SDS011;44928;53.074;6.646;2023-06-14T06:21:39;8.68;;;2.30;;
59145;SDS011;44928;53.074;6.646;2023-06-14T06:24:05;8.98;;;2.58;;
59145;SDS011;44928;53.074;6.646;2023-06-14T06:26:32;8.77;;;2.45;;
59145;SDS011;44928;53.074;6.646;2023-06-14T06:28:58;7.78;;;2.63;;
59145;SDS011;44928;53.074;6.646;2023-06-14T06:31:24;7.22;;;2.60;;
59145;SDS011;44928;53.074;6.646;2023-06-14T06:33:52;10.32;;;2.88;;
59145;SDS011;44928;53.074;6.646;2023-06-14T06:36:19;7.38;;;2.33;;
59145;SDS011;44928;53.074;6.646;2023-06-14T06:38:47;8.70;;;2.80;;
59145;SDS011;44928;53.074;6.646;2023-06-14T06:41:13;6.57;;;2.30;;
59145;SDS011;44928;53.074;6.646;2023-06-14T06:43:38;8.13;;;2.20;;
59145;SDS011;44928;53.074;6.646;2023-06-14T06:46:04;7.20;;;2.38;;
59145;SDS011;44928;53.074;6.646;2023-06-14T06:48:30;9.60;;;2.20;;
59145;SDS011;44928;53.074;6.646;2023-06-14T06:50:56;7.65;;;2.28;;
59145;SDS011;44928;53.074;6.646;2023-06-14T06:53:21;10.82;;;2.63;;
59145;SDS011;44928;53.074;6.646;2023-06-14T06:55:48;11.82;;;2.53;;
59145;SDS011;44928;53.074;6.646;2023-06-14T06:58:14;5.40;;;2.05;;
59145;SDS011;44928;53.074;6.646;2023-06-14T07:00:40;7.75;;;2.53;;
59145;SDS011;44928;53.074;6.646;2023-06-14T07:03:06;7.20;;;2.40;;
59145;SDS011;44928;53.074;6.646;2023-06-14T07:05:32;8.98;;;2.17;;
59145;SDS011;44928;53.074;6.646;2023-06-14T07:07:57;7.93;;;2.30;;
59145;SDS011;44928;53.074;6.646;2023-06-14T07:10:24;6.68;;;2.13;;
59145;SDS011;44928;53.074;6.646;2023-06-14T07:12:50;8.77;;;2.30;;
59145;SDS011;44928;53.074;6.646;2023-06-14T07:15:16;7.53;;;2.05;;
59145;SDS011;44928;53.074;6.646;2023-06-14T07:17:42;7.28;;;2.22;;
59145;SDS011;44928;53.074;6.646;2023-06-14T07:20:08;7.63;;;2.20;;
59145;SDS011;44928;53.074;6.646;2023-06-14T07:22:37;6.60;;;2.10;;
59145;SDS011;44928;53.074;6.646;2023-06-14T07:25:04;10.15;;;2.30;;
59145;SDS011;44928;53.074;6.646;2023-06-14T07:27:30;8.77;;;2.30;;
59145;SDS011;44928;53.074;6.646;2023-06-14T07:29:56;8.43;;;2.22;;
59145;SDS011;44928;53.074;6.646;2023-06-14T07:32:21;7.28;;;2.22;;
59145;SDS011;44928;53.074;6.646;2023-06-14T07:34:47;5.90;;;1.80;;
59145;SDS011;44928;53.074;6.646;2023-06-14T07:37:13;6.68;;;2.00;;
59145;SDS011;44928;53.074;6.646;2023-06-14T07:39:38;8.82;;;2.25;;
59145;SDS011;44928;53.074;6.646;2023-06-14T07:42:04;7.80;;;2.03;;
59145;SDS011;44928;53.074;6.646;2023-06-14T07:44:30;6.95;;;2.17;;
59145;SDS011;44928;53.074;6.646;2023-06-14T07:46:56;7.55;;;2.17;;
59145;SDS011;44928;53.074;6.646;2023-06-14T07:49:25;8.40;;;2.10;;
59145;SDS011;44928;53.074;6.646;2023-06-14T07:51:51;5.78;;;1.98;;
59145;SDS011;44928;53.074;6.646;2023-06-14T07:54:18;7.35;;;2.15;;
59145;SDS011;44928;53.074;6.646;2023-06-14T07:56:45;7.55;;;2.45;;
59145;SDS011;44928;53.074;6.646;2023-06-14T07:59:11;7.43;;;1.98;;
59145;SDS011;44928;53.074;6.646;2023-06-14T08:01:36;6.43;;;1.90;;
59145;SDS011;44928;53.074;6.646;2023-06-14T08:04:02;5.15;;;1.73;;
59145;SDS011;44928;53.074;6.646;2023-06-14T08:06:28;6.20;;;1.98;;
59145;SDS011;44928;53.074;6.646;2023-06-14T08:08:55;7.57;;;1.92;;
59145;SDS011;44928;53.074;6.646;2023-06-14T08:11:21;6.25;;;2.10;;
59145;SDS011;44928;53.074;6.646;2023-06-14T08:13:49;7.65;;;2.05;;
59145;SDS011;44928;53.074;6.646;2023-06-14T08:16:14;7.13;;;1.85;;
59145;SDS011;44928;53.074;6.646;2023-06-14T08:18:40;5.30;;;1.73;;
59145;SDS011;44928;53.074;6.646;2023-06-14T08:21:06;7.60;;;2.10;;
59145;SDS011;44928;53.074;6.646;2023-06-14T08:23:32;8.15;;;2.00;;
59145;SDS011;44928;53.074;6.646;2023-06-14T08:25:58;5.93;;;2.05;;
59145;SDS011;44928;53.074;6.646;2023-06-14T08:28:26;4.88;;;1.80;;
59145;SDS011;44928;53.074;6.646;2023-06-14T08:30:52;6.72;;;2.20;;
59145;SDS011;44928;53.074;6.646;2023-06-14T08:33:17;8.70;;;2.03;;
59145;SDS011;44928;53.074;6.646;2023-06-14T08:35:43;8.68;;;2.08;;
59145;SDS011;44928;53.074;6.646;2023-06-14T08:38:10;4.63;;;1.95;;
59145;SDS011;44928;53.074;6.646;2023-06-14T08:40:36;9.68;;;2.03;;
59145;SDS011;44928;53.074;6.646;2023-06-14T08:43:03;5.65;;;2.03;;
59145;SDS011;44928;53.074;6.646;2023-06-14T08:45:29;8.60;;;2.00;;
59145;SDS011;44928;53.074;6.646;2023-06-14T08:47:55;15.20;;;2.70;;
59145;SDS011;44928;53.074;6.646;2023-06-14T08:50:24;8.15;;;2.50;;
59145;SDS011;44928;53.074;6.646;2023-06-14T08:52:58;6.93;;;2.00;;
59145;SDS011;44928;53.074;6.646;2023-06-14T08:57:55;8.35;;;2.08;;
59145;SDS011;44928;53.074;6.646;2023-06-14T09:02:52;6.13;;;2.03;;
59145;SDS011;44928;53.074;6.646;2023-06-14T09:05:23;7.97;;;1.88;;
59145;SDS011;44928;53.074;6.646;2023-06-14T09:07:49;5.30;;;1.70;;
59145;SDS011;44928;53.074;6.646;2023-06-14T09:10:16;7.13;;;2.00;;
59145;SDS011;44928;53.074;6.646;2023-06-14T09:12:42;6.57;;;1.90;;
59145;SDS011;44928;53.074;6.646;2023-06-14T09:15:09;7.97;;;2.30;;
59145;SDS011;44928;53.074;6.646;2023-06-14T09:17:35;9.52;;;3.13;;
59145;SDS011;44928;53.074;6.646;2023-06-14T09:20:05;7.80;;;2.10;;
59145;SDS011;44928;53.074;6.646;2023-06-14T09:22:36;6.93;;;2.03;;
59145;SDS011;44928;53.074;6.646;2023-06-14T09:25:02;6.90;;;2.10;;
59145;SDS011;44928;53.074;6.646;2023-06-14T09:27:29;5.47;;;1.80;;
59145;SDS011;44928;53.074;6.646;2023-06-14T09:29:55;8.02;;;1.95;;
59145;SDS011;44928;53.074;6.646;2023-06-14T09:32:22;7.50;;;1.90;;
59145;SDS011;44928;53.074;6.646;2023-06-14T09:34:47;7.35;;;2.00;;
59145;SDS011;44928;53.074;6.646;2023-06-14T09:37:25;7.55;;;1.90;;
59145;SDS011;44928;53.074;6.646;2023-06-14T09:39:53;8.00;;;1.73;;
59145;SDS011;44928;53.074;6.646;2023-06-14T09:42:18;7.72;;;2.00;;
59145;SDS011;44928;53.074;6.646;2023-06-14T09:44:48;7.30;;;1.60;;
59145;SDS011;44928;53.074;6.646;2023-06-14T09:47:15;8.68;;;1.70;;
59145;SDS011;44928;53.074;6.646;2023-06-14T09:49:41;7.13;;;2.53;;
59145;SDS011;44928;53.074;6.646;2023-06-14T09:52:14;3.72;;;1.63;;
59145;SDS011;44928;53.074;6.646;2023-06-14T09:54:42;5.05;;;1.65;;
59145;SDS011;44928;53.074;6.646;2023-06-14T09:57:12;5.18;;;1.60;;
59145;SDS011;44928;53.074;6.646;2023-06-14T09:59:42;5.78;;;2.03;;
59145;SDS011;44928;53.074;6.646;2023-06-14T10:04:58;5.40;;;1.70;;
59145;SDS011;44928;53.074;6.646;2023-06-14T10:07:30;4.35;;;1.67;;
59145;SDS011;44928;53.074;6.646;2023-06-14T10:10:00;17.42;;;2.55;;
59145;SDS011;44928;53.074;6.646;2023-06-14T10:12:27;8.75;;;1.88;;
59145;SDS011;44928;53.074;6.646;2023-06-14T10:14:52;10.55;;;1.98;;
59145;SDS011;44928;53.074;6.646;2023-06-14T10:23:13;6.55;;;2.00;;
59145;SDS011;44928;53.074;6.646;2023-06-14T10:25:41;9.07;;;1.75;;
59145;SDS011;44928;53.074;6.646;2023-06-14T10:28:17;8.00;;;2.13;;
59145;SDS011;44928;53.074;6.646;2023-06-14T10:33:29;8.00;;;1.67;;
59145;SDS011;44928;53.074;6.646;2023-06-14T10:39:10;6.72;;;1.85;;
59145;SDS011;44928;53.074;6.646;2023-06-14T10:41:40;5.18;;;1.52;;
59145;SDS011;44928;53.074;6.646;2023-06-14T10:46:39;8.13;;;1.50;;
59145;SDS011;44928;53.074;6.646;2023-06-14T10:49:05;8.10;;;1.60;;
59145;SDS011;44928;53.074;6.646;2023-06-14T10:51:38;4.88;;;1.40;;
59145;SDS011;44928;53.074;6.646;2023-06-14T10:54:12;8.02;;;1.40;;
59145;SDS011;44928;53.074;6.646;2023-06-14T10:56:39;7.38;;;1.25;;
59145;SDS011;44928;53.074;6.646;2023-06-14T10:59:20;9.50;;;1.70;;
59145;SDS011;44928;53.074;6.646;2023-06-14T11:04:50;6.45;;;1.30;;
59145;SDS011;44928;53.074;6.646;2023-06-14T11:13:05;8.52;;;1.33;;
59145;SDS011;44928;53.074;6.646;2023-06-14T11:15:36;4.25;;;1.40;;
59145;SDS011;44928;53.074;6.646;2023-06-14T11:18:06;4.95;;;1.20;;
59145;SDS011;44928;53.074;6.646;2023-06-14T11:20:33;6.80;;;1.33;;
59145;SDS011;44928;53.074;6.646;2023-06-14T11:23:00;7.65;;;1.50;;
59145;SDS011;44928;53.074;6.646;2023-06-14T11:25:27;4.57;;;1.30;;
59145;SDS011;44928;53.074;6.646;2023-06-14T11:27:55;8.40;;;1.30;;
59145;SDS011;44928;53.074;6.646;2023-06-14T11:30:22;6.18;;;1.48;;
59145;SDS011;44928;53.074;6.646;2023-06-14T11:32:48;7.30;;;1.65;;
59145;SDS011;44928;53.074;6.646;2023-06-14T11:35:17;6.70;;;1.52;;
59145;SDS011;44928;53.074;6.646;2023-06-14T11:37:43;5.63;;;1.50;;
59145;SDS011;44928;53.074;6.646;2023-06-14T11:40:12;5.57;;;1.45;;
59145;SDS011;44928;53.074;6.646;2023-06-14T11:42:39;11.35;;;1.88;;
59145;SDS011;44928;53.074;6.646;2023-06-14T11:45:09;4.13;;;1.30;;
59145;SDS011;44928;53.074;6.646;2023-06-14T11:47:37;4.30;;;1.33;;
59145;SDS011;44928;53.074;6.646;2023-06-14T11:50:04;6.47;;;1.55;;
59145;SDS011;44928;53.074;6.646;2023-06-14T11:52:33;3.23;;;1.50;;
59145;SDS011;44928;53.074;6.646;2023-06-14T11:54:59;7.78;;;1.60;;
59145;SDS011;44928;53.074;6.646;2023-06-14T11:57:29;5.15;;;1.52;;
59145;SDS011;44928;53.074;6.646;2023-06-14T11:59:55;6.28;;;1.27;;
59145;SDS011;44928;53.074;6.646;2023-06-14T12:02:21;9.15;;;1.88;;
59145;SDS011;44928;53.074;6.646;2023-06-14T12:04:47;18.45;;;2.15;;
59145;SDS011;44928;53.074;6.646;2023-06-14T12:07:14;8.07;;;1.52;;
59145;SDS011;44928;53.074;6.646;2023-06-14T12:09:42;4.60;;;1.27;;
59145;SDS011;44928;53.074;6.646;2023-06-14T12:12:24;4.50;;;1.40;;
59145;SDS011;44928;53.074;6.646;2023-06-14T12:14:50;5.88;;;1.55;;
59145;SDS011;44928;53.074;6.646;2023-06-14T12:17:18;6.38;;;1.35;;
59145;SDS011;44928;53.074;6.646;2023-06-14T12:19:44;6.03;;;1.50;;
59145;SDS011;44928;53.074;6.646;2023-06-14T12:22:11;6.18;;;1.73;;
59145;SDS011;44928;53.074;6.646;2023-06-14T12:24:44;6.57;;;1.50;;
59145;SDS011;44928;53.074;6.646;2023-06-14T12:27:10;4.28;;;1.20;;
59145;SDS011;44928;53.074;6.646;2023-06-14T12:29:40;4.78;;;1.50;;
59145;SDS011;44928;53.074;6.646;2023-06-14T12:32:10;6.45;;;1.45;;
59145;SDS011;44928;53.074;6.646;2023-06-14T12:34:36;5.60;;;1.70;;
59145;SDS011;44928;53.074;6.646;2023-06-14T12:37:02;6.13;;;1.70;;
59145;SDS011;44928;53.074;6.646;2023-06-14T12:39:31;5.00;;;1.58;;
59145;SDS011;44928;53.074;6.646;2023-06-14T12:41:57;6.50;;;1.73;;
59145;SDS011;44928;53.074;6.646;2023-06-14T12:44:24;8.20;;;1.55;;
59145;SDS011;44928;53.074;6.646;2023-06-14T12:46:50;7.72;;;1.60;;
59145;SDS011;44928;53.074;6.646;2023-06-14T12:49:19;9.27;;;1.70;;
59145;SDS011;44928;53.074;6.646;2023-06-14T12:51:45;6.20;;;1.25;;
59145;SDS011;44928;53.074;6.646;2023-06-14T12:54:11;7.53;;;1.70;;
59145;SDS011;44928;53.074;6.646;2023-06-14T12:56:37;7.53;;;1.58;;
59145;SDS011;44928;53.074;6.646;2023-06-14T12:59:03;5.15;;;1.52;;
59145;SDS011;44928;53.074;6.646;2023-06-14T13:01:29;3.92;;;1.33;;
59145;SDS011;44928;53.074;6.646;2023-06-14T13:03:54;4.30;;;1.58;;
59145;SDS011;44928;53.074;6.646;2023-06-14T13:06:21;5.97;;;1.80;;
59145;SDS011;44928;53.074;6.646;2023-06-14T13:08:50;4.72;;;1.40;;
59145;SDS011;44928;53.074;6.646;2023-06-14T13:11:15;4.95;;;1.52;;
59145;SDS011;44928;53.074;6.646;2023-06-14T13:13:41;5.38;;;1.40;;
59145;SDS011;44928;53.074;6.646;2023-06-14T13:16:07;4.13;;;1.48;;
59145;SDS011;44928;53.074;6.646;2023-06-14T13:18:33;4.03;;;1.38;;
59145;SDS011;44928;53.074;6.646;2023-06-14T13:20:59;5.07;;;1.52;;
59145;SDS011;44928;53.074;6.646;2023-06-14T13:23:24;5.50;;;1.50;;
59145;SDS011;44928;53.074;6.646;2023-06-14T13:25:50;7.00;;;1.50;;
59145;SDS011;44928;53.074;6.646;2023-06-14T13:28:16;38.65;;;5.25;;
59145;SDS011;44928;53.074;6.646;2023-06-14T13:30:42;8.40;;;1.70;;
59145;SDS011;44928;53.074;6.646;2023-06-14T13:33:08;6.07;;;1.58;;
59145;SDS011;44928;53.074;6.646;2023-06-14T13:35:34;6.15;;;1.60;;
59145;SDS011;44928;53.074;6.646;2023-06-14T13:38:00;8.50;;;1.92;;
59145;SDS011;44928;53.074;6.646;2023-06-14T13:40:26;8.38;;;1.63;;
59145;SDS011;44928;53.074;6.646;2023-06-14T13:42:52;3.78;;;1.40;;
59145;SDS011;44928;53.074;6.646;2023-06-14T13:45:18;5.13;;;1.50;;
59145;SDS011;44928;53.074;6.646;2023-06-14T13:47:43;5.00;;;1.60;;
59145;SDS011;44928;53.074;6.646;2023-06-14T13:50:10;5.60;;;1.52;;
59145;SDS011;44928;53.074;6.646;2023-06-14T13:52:35;3.22;;;1.30;;
59145;SDS011;44928;53.074;6.646;2023-06-14T13:55:02;6.40;;;1.73;;
59145;SDS011;44928;53.074;6.646;2023-06-14T13:57:28;6.07;;;1.70;;
59145;SDS011;44928;53.074;6.646;2023-06-14T13:59:53;4.85;;;1.40;;
59145;SDS011;44928;53.074;6.646;2023-06-14T14:02:20;4.78;;;1.70;;
59145;SDS011;44928;53.074;6.646;2023-06-14T14:04:46;4.72;;;1.40;;
59145;SDS011;44928;53.074;6.646;2023-06-14T14:07:17;4.57;;;1.58;;
59145;SDS011;44928;53.074;6.646;2023-06-14T14:09:44;4.85;;;1.50;;
59145;SDS011;44928;53.074;6.646;2023-06-14T14:12:10;3.75;;;1.40;;
59145;SDS011;44928;53.074;6.646;2023-06-14T14:14:36;6.75;;;1.60;;
59145;SDS011;44928;53.074;6.646;2023-06-14T14:17:02;7.47;;;1.60;;
59145;SDS011;44928;53.074;6.646;2023-06-14T14:19:28;6.18;;;1.75;;
59145;SDS011;44928;53.074;6.646;2023-06-14T14:21:53;4.30;;;1.45;;
59145;SDS011;44928;53.074;6.646;2023-06-14T14:24:19;5.35;;;1.60;;
59145;SDS011;44928;53.074;6.646;2023-06-14T14:26:45;4.13;;;1.50;;
59145;SDS011;44928;53.074;6.646;2023-06-14T14:29:13;4.55;;;1.63;;
59145;SDS011;44928;53.074;6.646;2023-06-14T14:31:39;5.20;;;1.65;;
59145;SDS011;44928;53.074;6.646;2023-06-14T14:34:05;6.28;;;1.70;;
59145;SDS011;44928;53.074;6.646;2023-06-14T14:36:31;4.53;;;1.35;;
59145;SDS011;44928;53.074;6.646;2023-06-14T14:38:58;5.05;;;1.60;;
59145;SDS011;44928;53.074;6.646;2023-06-14T14:41:24;5.63;;;1.60;;
59145;SDS011;44928;53.074;6.646;2023-06-14T14:43:50;4.18;;;1.55;;
59145;SDS011;44928;53.074;6.646;2023-06-14T14:46:16;5.15;;;1.88;;
59145;SDS011;44928;53.074;6.646;2023-06-14T14:48:42;5.28;;;1.58;;
59145;SDS011;44928;53.074;6.646;2023-06-14T14:51:07;6.18;;;1.70;;
59145;SDS011;44928;53.074;6.646;2023-06-14T14:53:33;6.18;;;1.60;;
59145;SDS011;44928;53.074;6.646;2023-06-14T14:55:59;6.28;;;1.63;;
59145;SDS011;44928;53.074;6.646;2023-06-14T14:58:25;6.47;;;1.80;;
59145;SDS011;44928;53.074;6.646;2023-06-14T15:00:50;7.30;;;1.73;;
59145;SDS011;44928;53.074;6.646;2023-06-14T15:03:16;4.45;;;1.48;;
59145;SDS011;44928;53.074;6.646;2023-06-14T15:05:42;7.30;;;1.83;;
59145;SDS011;44928;53.074;6.646;2023-06-14T15:08:08;6.70;;;1.67;;
59145;SDS011;44928;53.074;6.646;2023-06-14T15:10:40;12.45;;;2.30;;
59145;SDS011;44928;53.074;6.646;2023-06-14T15:13:06;7.20;;;1.80;;
59145;SDS011;44928;53.074;6.646;2023-06-14T15:15:33;4.22;;;1.55;;
59145;SDS011;44928;53.074;6.646;2023-06-14T15:17:59;7.60;;;2.13;;
59145;SDS011;44928;53.074;6.646;2023-06-14T15:20:25;7.10;;;1.90;;
59145;SDS011;44928;53.074;6.646;2023-06-14T15:22:51;5.38;;;2.05;;